createdAt,value
2023-01-07T00:00:10.761Z,9.14
2023-01-07T00:05:15.705Z,9.12
2023-01-07T00:10:17.576Z,9.12
2023-01-07T00:15:19.725Z,9.12
2023-01-07T00:20:21.601Z,9.14
2023-01-07T00:25:23.778Z,9.14
2023-01-07T00:30:25.596Z,9.14
2023-01-07T00:35:28.442Z,9.17
2023-01-07T00:40:31.834Z,9.21
2023-01-07T00:45:36.552Z,9.24
2023-01-07T00:50:39.006Z,9.24
2023-01-07T00:55:41.077Z,9.22
2023-01-07T01:00:43.427Z,9.21
2023-01-07T01:05:45.410Z,9.22
2023-01-07T01:10:48.247Z,9.24
2023-01-07T01:15:50.239Z,9.25
2023-01-07T01:20:52.236Z,9.28
2023-01-07T01:26:03.363Z,9.28
2023-01-07T01:31:05.996Z,9.28
2023-01-07T01:36:18.330Z,9.28
2023-01-07T01:41:20.560Z,9.27
2023-01-07T01:46:25.322Z,9.29
2023-01-07T01:51:34.735Z,9.30
2023-01-07T01:56:40.675Z,9.34
2023-01-07T02:01:42.856Z,9.37
2023-01-07T02:07:10.837Z,9.38
2023-01-07T02:12:16.779Z,9.39
2023-01-07T02:17:33.832Z,9.37
2023-01-07T02:23:00.047Z,9.36
2023-01-07T02:28:04.497Z,9.35
2023-01-07T02:33:15.561Z,9.34
2023-01-07T02:38:55.052Z,9.34
2023-01-07T02:44:31.607Z,9.34
2023-01-07T02:49:34.591Z,9.34
2023-01-07T02:54:39.127Z,9.27
2023-01-07T02:59:56.377Z,9.24
2023-01-07T03:04:58.330Z,9.17
2023-01-07T03:10:31.037Z,9.14
2023-01-07T03:15:48.566Z,9.07
2023-01-07T03:20:57.386Z,9.03
2023-01-07T03:26:05.054Z,8.99
2023-01-07T03:31:12.233Z,8.94
2023-01-07T03:36:18.680Z,8.90
2023-01-07T03:41:39.758Z,8.89
2023-01-07T03:46:42.619Z,8.86
2023-01-07T03:51:46.070Z,8.86
2023-01-07T03:56:48.078Z,8.86
2023-01-07T04:01:50.399Z,8.86
2023-01-07T04:06:53.147Z,8.84
2023-01-07T04:11:55.520Z,8.82
2023-01-07T04:17:00.371Z,8.81
2023-01-07T04:22:03.058Z,8.78
2023-01-07T04:27:08.525Z,8.79
2023-01-07T04:32:13.716Z,8.79
2023-01-07T04:37:17.360Z,8.76
2023-01-07T04:42:19.760Z,8.74
2023-01-07T04:47:25.800Z,8.75
2023-01-07T04:52:28.460Z,8.76
2023-01-07T04:57:30.515Z,8.79
2023-01-07T05:02:33.809Z,8.79
2023-01-07T05:07:35.847Z,8.76
2023-01-07T05:12:39.309Z,8.76
2023-01-07T05:17:44.060Z,8.74
2023-01-07T05:22:46.520Z,8.71
2023-01-07T05:27:48.452Z,8.70
2023-01-07T05:32:51.314Z,8.66
2023-01-07T05:37:53.342Z,8.64
2023-01-07T05:42:56.030Z,8.62
2023-01-07T05:47:57.974Z,8.62
2023-01-07T05:53:00.009Z,8.66
2023-01-07T05:58:01.776Z,8.71
2023-01-07T06:03:05.043Z,8.73
2023-01-07T06:08:06.873Z,8.75
2023-01-07T06:13:08.617Z,8.80
2023-01-07T06:18:10.491Z,8.82
2023-01-07T06:23:12.292Z,8.84
2023-01-07T06:28:18.165Z,8.82
2023-01-07T06:33:20.394Z,8.82
2023-01-07T06:38:22.154Z,8.83
2023-01-07T06:43:24.079Z,8.85
2023-01-07T06:48:26.627Z,8.89
2023-01-07T06:53:28.442Z,8.92
2023-01-07T06:58:30.276Z,8.93
2023-01-07T07:03:32.512Z,8.94
2023-01-07T07:08:34.383Z,8.96
2023-01-07T07:13:36.218Z,8.99
2023-01-07T07:18:38.002Z,9.01
2023-01-07T07:23:39.880Z,9.02
2023-01-07T07:28:43.030Z,9.03
2023-01-07T07:33:45.321Z,9.05
2023-01-07T07:38:47.247Z,9.06
2023-01-07T07:43:49.050Z,9.09
2023-01-07T07:48:51.216Z,9.12
2023-01-07T07:53:53.094Z,9.15
2023-01-07T07:58:54.950Z,9.18
2023-01-07T08:03:56.785Z,9.20
2023-01-07T08:08:58.625Z,9.21
2023-01-07T08:14:00.554Z,9.25
2023-01-07T08:19:02.418Z,9.28
2023-01-07T08:24:04.710Z,9.31
2023-01-07T08:29:06.654Z,9.31
2023-01-07T08:34:08.419Z,9.30
2023-01-07T08:39:11.923Z,9.31
2023-01-07T08:44:13.682Z,9.33
2023-01-07T08:49:15.889Z,9.34
2023-01-07T08:54:17.708Z,9.41
2023-01-07T08:59:19.485Z,9.53
2023-01-07T09:04:21.204Z,9.63
2023-01-07T09:09:24.056Z,9.66
2023-01-07T09:14:25.887Z,9.67
2023-01-07T09:19:28.101Z,9.67
2023-01-07T09:24:29.961Z,9.73
2023-01-07T09:29:32.015Z,9.76
2023-01-07T09:34:33.978Z,9.77
2023-01-07T09:39:35.968Z,9.78
2023-01-07T09:45:04.174Z,9.81
2023-01-07T09:50:19.548Z,9.85
2023-01-07T09:55:26.200Z,9.87
2023-01-07T10:00:29.968Z,9.84
2023-01-07T10:05:53.560Z,9.86
2023-01-07T10:11:04.337Z,9.92
2023-01-07T10:16:36.904Z,10.00
2023-01-07T10:21:55.307Z,10.10
2023-01-07T10:27:03.400Z,10.21
2023-01-07T10:32:21.133Z,10.29
2023-01-07T10:37:38.301Z,10.36
2023-01-07T10:43:01.144Z,10.45
2023-01-07T10:48:18.180Z,10.48
2023-01-07T10:53:33.858Z,10.50
2023-01-07T10:58:42.343Z,10.48
2023-01-07T11:03:46.531Z,10.54
2023-01-07T11:08:50.348Z,10.65
2023-01-07T11:14:19.361Z,10.63
2023-01-07T11:19:21.719Z,10.55
2023-01-07T11:24:34.859Z,10.48
2023-01-07T11:29:45.088Z,10.46
2023-01-07T11:35:00.095Z,10.45
2023-01-07T11:40:16.486Z,10.45
2023-01-07T11:45:20.661Z,10.44
2023-01-07T11:50:25.603Z,10.43
2023-01-07T11:55:28.971Z,10.43
2023-01-07T12:00:31.692Z,10.39
2023-01-07T12:05:33.575Z,10.38
2023-01-07T12:10:38.088Z,10.44
2023-01-07T12:15:55.681Z,10.55
2023-01-07T12:21:27.498Z,10.67
2023-01-07T12:26:50.352Z,10.78
2023-01-07T12:32:22.381Z,10.86
2023-01-07T12:37:43.686Z,10.89
2023-01-07T12:42:52.327Z,10.84
2023-01-07T12:48:02.490Z,10.85
2023-01-07T12:53:19.556Z,10.96
2023-01-07T12:58:47.059Z,11.02
2023-01-07T13:04:13.583Z,11.02
2023-01-07T13:09:31.421Z,10.98
2023-01-07T13:14:56.592Z,10.93
2023-01-07T13:19:58.444Z,10.86
2023-01-07T13:25:26.456Z,10.81
2023-01-07T13:30:43.205Z,10.70
2023-01-07T13:36:14.357Z,10.58
2023-01-07T13:41:25.881Z,10.48
2023-01-07T13:46:35.622Z,10.43
2023-01-07T13:51:38.600Z,10.42
2023-01-07T13:56:40.613Z,10.41
2023-01-07T14:02:16.480Z,10.40
2023-01-07T14:07:19.831Z,10.36
2023-01-07T14:12:47.970Z,10.36
2023-01-07T14:18:17.748Z,10.32
2023-01-07T14:23:35.557Z,10.25
2023-01-07T14:28:52.606Z,10.16
2023-01-07T14:34:04.916Z,10.10
2023-01-07T14:39:33.598Z,10.01
2023-01-07T14:44:35.606Z,9.93
2023-01-07T14:50:08.460Z,9.86
2023-01-07T14:55:31.067Z,9.76
2023-01-07T15:01:05.481Z,9.66
2023-01-07T15:06:27.752Z,9.57
2023-01-07T15:11:49.051Z,9.52
2023-01-07T15:16:53.550Z,9.47
2023-01-07T15:22:00.895Z,9.41
2023-01-07T15:27:10.210Z,9.33
2023-01-07T15:32:15.097Z,9.24
2023-01-07T15:37:18.305Z,9.16
2023-01-07T15:42:22.635Z,9.08
2023-01-07T15:47:41.621Z,9.00
2023-01-07T15:53:00.137Z,8.89
2023-01-07T15:58:08.862Z,8.80
2023-01-07T16:03:16.912Z,8.71
2023-01-07T16:08:25.176Z,8.64
2023-01-07T16:13:27.062Z,8.59
2023-01-07T16:18:33.476Z,8.54
2023-01-07T16:23:37.956Z,8.49
2023-01-07T16:28:55.959Z,8.42
2023-01-07T16:33:59.781Z,8.39
2023-01-07T16:39:11.224Z,8.36
2023-01-07T16:44:48.723Z,8.31
2023-01-07T16:50:10.069Z,8.24
2023-01-07T16:55:52.466Z,8.18
2023-01-07T17:00:56.985Z,8.12
2023-01-07T17:05:58.822Z,8.05
2023-01-07T17:11:09.709Z,8.01
2023-01-07T17:16:15.515Z,7.94
2023-01-07T17:21:37.747Z,7.92
2023-01-07T17:26:42.350Z,7.88
2023-01-07T17:31:44.310Z,7.84
2023-01-07T17:36:46.129Z,7.80
2023-01-07T17:42:07.017Z,7.77
2023-01-07T17:47:11.959Z,7.70
2023-01-07T17:52:13.792Z,7.64
2023-01-07T17:57:15.556Z,7.62
2023-01-07T18:02:19.276Z,7.60
2023-01-07T18:07:21.383Z,7.59
2023-01-07T18:12:35.604Z,7.58
2023-01-07T18:17:38.428Z,7.55
2023-01-07T18:22:43.440Z,7.51
2023-01-07T18:27:45.786Z,7.44
2023-01-07T18:32:50.632Z,7.40
2023-01-07T18:37:52.458Z,7.36
2023-01-07T18:42:55.442Z,7.33
2023-01-07T18:47:57.218Z,7.32
2023-01-07T18:52:59.044Z,7.29
2023-01-07T18:58:00.871Z,7.25
2023-01-07T19:03:02.954Z,7.20
2023-01-07T19:08:04.901Z,7.19
2023-01-07T19:13:07.872Z,7.18
2023-01-07T19:18:09.819Z,7.18
2023-01-07T19:23:12.069Z,7.17
2023-01-07T19:28:13.954Z,7.18
2023-01-07T19:33:15.940Z,7.18
2023-01-07T19:38:17.830Z,7.16
2023-01-07T19:43:19.698Z,7.15
2023-01-07T19:48:22.058Z,7.14
2023-01-07T19:53:25.120Z,7.11
2023-01-07T19:58:28.001Z,7.07
2023-01-07T20:03:39.209Z,7.00
2023-01-07T20:08:44.242Z,6.99
2023-01-07T20:13:48.125Z,6.94
2023-01-07T20:18:52.961Z,6.92
2023-01-07T20:23:55.812Z,6.88
2023-01-07T20:29:23.578Z,6.82
2023-01-07T20:34:27.544Z,6.77
2023-01-07T20:39:31.611Z,6.74
2023-01-07T20:44:34.731Z,6.71
2023-01-07T20:49:36.759Z,6.68
2023-01-07T20:54:38.662Z,6.68
2023-01-07T20:59:42.857Z,6.66
2023-01-07T21:04:44.812Z,6.63
2023-01-07T21:09:46.763Z,6.61
2023-01-07T21:14:52.660Z,6.58
2023-01-07T21:19:55.900Z,6.55
2023-01-07T21:24:58.004Z,6.53
2023-01-07T21:30:05.857Z,6.48
2023-01-07T21:35:09.835Z,6.44
2023-01-07T21:40:11.719Z,6.40
2023-01-07T21:45:14.396Z,6.38
2023-01-07T21:50:16.787Z,6.36
2023-01-07T21:55:18.698Z,6.33
2023-01-07T22:00:20.601Z,6.31
2023-01-07T22:05:22.473Z,6.27
2023-01-07T22:10:25.380Z,6.26
2023-01-07T22:15:27.470Z,6.23
2023-01-07T22:20:29.295Z,6.24
2023-01-07T22:25:32.631Z,6.23
2023-01-07T22:30:36.894Z,6.20
2023-01-07T22:35:38.769Z,6.16
2023-01-07T22:40:41.020Z,6.13
2023-01-07T22:45:46.737Z,6.11
2023-01-07T22:51:03.465Z,6.08
2023-01-07T22:56:05.821Z,6.03
2023-01-07T23:01:14.000Z,6.01
2023-01-07T23:06:16.894Z,5.97
2023-01-07T23:11:37.129Z,5.95
2023-01-07T23:16:39.110Z,5.92
2023-01-07T23:21:43.537Z,5.93
2023-01-07T23:26:47.639Z,5.91
2023-01-07T23:31:49.975Z,5.91
2023-01-07T23:36:52.125Z,5.87
2023-01-07T23:41:53.983Z,5.86
2023-01-07T23:46:55.828Z,5.85
2023-01-07T23:51:58.303Z,5.81
2023-01-07T23:57:01.493Z,5.81
